createdAt,value
2023-01-08T00:00:38.911Z,44.96
2023-01-08T00:01:38.830Z,45.28
2023-01-08T00:02:38.887Z,48.18
2023-01-08T00:03:38.982Z,45.92
2023-01-08T00:04:39.929Z,43.83
2023-01-08T00:05:38.799Z,44.15
2023-01-08T00:06:38.765Z,47.53
2023-01-08T00:07:38.764Z,47.05
2023-01-08T00:08:38.806Z,49.15
2023-01-08T00:09:38.746Z,48.66
2023-01-08T00:10:38.722Z,45.76
2023-01-08T00:11:38.762Z,45.60
2023-01-08T00:12:38.689Z,47.53
2023-01-08T00:13:38.795Z,47.70
2023-01-08T00:14:38.719Z,48.98
2023-01-08T00:15:38.702Z,44.63
2023-01-08T00:16:38.692Z,44.31
2023-01-08T00:17:38.657Z,47.37
2023-01-08T00:18:38.739Z,47.70
2023-01-08T00:19:38.651Z,46.73
2023-01-08T00:20:38.624Z,47.86
2023-01-08T00:21:38.622Z,47.21
2023-01-08T00:22:38.616Z,49.63
2023-01-08T00:23:38.599Z,45.12
2023-01-08T00:24:38.573Z,48.18
2023-01-08T00:25:38.583Z,48.34
2023-01-08T00:26:38.572Z,45.76
2023-01-08T00:27:38.527Z,45.76
2023-01-08T00:28:38.573Z,46.25
2023-01-08T00:29:38.628Z,48.66
2023-01-08T00:30:38.532Z,44.31
2023-01-08T00:31:38.507Z,46.25
2023-01-08T00:32:38.503Z,45.92
2023-01-08T00:33:38.479Z,47.37
2023-01-08T00:34:38.484Z,50.43
2023-01-08T00:35:38.477Z,47.86
2023-01-08T00:36:38.457Z,45.92
2023-01-08T00:37:38.447Z,47.21
2023-01-08T00:38:38.452Z,48.34
2023-01-08T00:39:38.422Z,47.21
2023-01-08T00:40:38.418Z,45.44
2023-01-08T00:41:38.402Z,45.76
2023-01-08T00:42:38.372Z,46.57
2023-01-08T00:43:38.369Z,44.15
2023-01-08T00:44:38.383Z,44.47
2023-01-08T00:45:38.495Z,43.34
2023-01-08T00:46:38.341Z,45.60
2023-01-08T00:47:38.332Z,47.21
2023-01-08T00:48:38.307Z,47.53
2023-01-08T00:49:38.306Z,48.34
2023-01-08T00:50:38.324Z,46.89
2023-01-08T00:51:38.273Z,49.95
2023-01-08T00:52:38.270Z,47.53
2023-01-08T00:53:38.450Z,46.73
2023-01-08T00:54:38.252Z,43.18
2023-01-08T00:55:38.250Z,44.31
2023-01-08T00:56:38.228Z,45.76
2023-01-08T00:57:38.209Z,47.21
2023-01-08T00:58:38.220Z,49.79
2023-01-08T00:59:38.189Z,43.67
2023-01-08T01:00:38.191Z,43.67
2023-01-08T01:01:38.391Z,44.15
2023-01-08T01:02:38.145Z,47.37
2023-01-08T01:03:38.142Z,43.83
2023-01-08T01:04:38.145Z,42.86
2023-01-08T01:05:38.116Z,42.22
2023-01-08T01:06:38.112Z,43.99
2023-01-08T01:07:38.103Z,43.34
2023-01-08T01:08:38.096Z,43.51
2023-01-08T01:09:38.073Z,47.05
2023-01-08T01:10:38.082Z,44.31
2023-01-08T01:11:38.050Z,43.67
2023-01-08T01:12:38.029Z,44.63
2023-01-08T01:13:38.041Z,47.53
2023-01-08T01:14:38.041Z,48.34
2023-01-08T01:15:38.011Z,46.57
2023-01-08T01:16:38.011Z,41.25
2023-01-08T01:17:37.981Z,43.67
2023-01-08T01:18:37.974Z,44.79
2023-01-08T01:19:37.968Z,44.63
2023-01-08T01:20:37.968Z,46.41
2023-01-08T01:21:37.926Z,42.06
2023-01-08T01:22:37.918Z,44.15
2023-01-08T01:23:37.919Z,44.31
2023-01-08T01:24:37.916Z,45.76
2023-01-08T01:25:37.883Z,45.44
2023-01-08T01:26:37.870Z,44.47
2023-01-08T01:27:37.881Z,44.79
2023-01-08T01:28:37.847Z,45.28
2023-01-08T01:29:37.845Z,44.79
2023-01-08T01:30:37.874Z,42.70
2023-01-08T01:31:37.832Z,44.63
2023-01-08T01:32:37.837Z,44.47
2023-01-08T01:33:37.894Z,44.15
2023-01-08T01:34:37.799Z,42.22
2023-01-08T01:35:37.783Z,43.02
2023-01-08T01:36:37.773Z,45.60
2023-01-08T01:37:37.820Z,44.79
2023-01-08T01:38:37.753Z,44.47
2023-01-08T01:39:37.735Z,44.79
2023-01-08T01:40:37.721Z,42.70
2023-01-08T01:41:37.714Z,45.12
2023-01-08T01:42:37.709Z,43.51
2023-01-08T01:43:37.686Z,43.99
2023-01-08T01:44:37.678Z,42.22
2023-01-08T01:45:37.719Z,42.38
2023-01-08T01:46:37.683Z,44.15
2023-01-08T01:47:37.650Z,43.18
2023-01-08T01:48:37.636Z,44.96
2023-01-08T01:49:37.728Z,42.22
2023-01-08T01:50:37.617Z,42.70
2023-01-08T01:51:37.611Z,43.99
2023-01-08T01:52:37.594Z,45.76
2023-01-08T01:53:37.581Z,43.99
2023-01-08T01:54:37.568Z,42.86
2023-01-08T01:55:37.566Z,46.25
2023-01-08T01:56:37.538Z,44.47
2023-01-08T01:57:37.552Z,45.76
2023-01-08T01:58:37.534Z,45.92
2023-01-08T01:59:37.513Z,43.34
2023-01-08T02:00:37.507Z,41.89
2023-01-08T02:01:37.628Z,42.38
2023-01-08T02:02:37.498Z,43.67
2023-01-08T02:03:37.598Z,44.47
2023-01-08T02:04:37.464Z,42.06
2023-01-08T02:05:37.539Z,41.73
2023-01-08T02:06:37.422Z,43.51
2023-01-08T02:07:37.437Z,44.31
2023-01-08T02:08:37.409Z,44.47
2023-01-08T02:09:37.393Z,47.70
2023-01-08T02:10:37.386Z,46.08
2023-01-08T02:11:37.389Z,45.76
2023-01-08T02:12:37.363Z,44.15
2023-01-08T02:13:37.369Z,44.47
2023-01-08T02:14:37.347Z,44.96
2023-01-08T02:15:37.325Z,42.86
2023-01-08T02:16:37.400Z,46.08
2023-01-08T02:17:37.311Z,46.41
2023-01-08T02:18:37.295Z,45.76
2023-01-08T02:19:37.301Z,44.79
2023-01-08T02:20:37.284Z,43.99
2023-01-08T02:21:37.360Z,44.47
2023-01-08T02:22:37.277Z,45.44
2023-01-08T02:23:37.242Z,45.76
2023-01-08T02:24:37.240Z,45.44
2023-01-08T02:25:37.232Z,42.70
2023-01-08T02:26:37.225Z,43.02
2023-01-08T02:27:37.206Z,42.86
2023-01-08T02:28:37.189Z,46.57
2023-01-08T02:29:37.199Z,46.08
2023-01-08T02:30:37.181Z,43.83
2023-01-08T02:31:37.159Z,42.86
2023-01-08T02:32:37.139Z,42.86
2023-01-08T02:33:37.136Z,42.22
2023-01-08T02:34:37.135Z,43.67
2023-01-08T02:35:37.110Z,42.70
2023-01-08T02:36:37.119Z,43.83
2023-01-08T02:37:37.093Z,43.83
2023-01-08T02:38:37.081Z,44.15
2023-01-08T02:39:37.072Z,45.44
2023-01-08T02:40:37.054Z,41.73
2023-01-08T02:41:37.054Z,41.89
2023-01-08T02:42:37.027Z,43.02
2023-01-08T02:43:37.025Z,42.06
2023-01-08T02:44:37.037Z,41.89
2023-01-08T02:45:36.991Z,42.54
2023-01-08T02:46:36.980Z,43.34
2023-01-08T02:47:36.979Z,42.70
2023-01-08T02:48:36.981Z,41.89
2023-01-08T02:49:36.969Z,43.34
2023-01-08T02:50:36.944Z,43.02
2023-01-08T02:51:36.947Z,42.38
2023-01-08T02:52:36.915Z,42.86
2023-01-08T02:53:37.046Z,43.51
2023-01-08T02:54:36.925Z,43.67
2023-01-08T02:55:36.884Z,44.47
2023-01-08T02:56:36.892Z,43.18
2023-01-08T02:57:36.872Z,42.54
2023-01-08T02:58:36.852Z,44.31
2023-01-08T02:59:36.861Z,44.79
2023-01-08T03:00:36.859Z,43.02
2023-01-08T03:01:37.020Z,42.06
2023-01-08T03:02:36.809Z,43.51
2023-01-08T03:03:36.817Z,43.67
2023-01-08T03:04:36.893Z,43.34
2023-01-08T03:05:36.778Z,42.70
2023-01-08T03:06:36.765Z,45.60
2023-01-08T03:07:36.762Z,43.83
2023-01-08T03:08:36.744Z,43.67
2023-01-08T03:09:36.833Z,43.02
2023-01-08T03:10:36.724Z,43.34
2023-01-08T03:11:36.708Z,43.18
2023-01-08T03:12:36.720Z,43.99
2023-01-08T03:13:36.694Z,44.31
2023-01-08T03:14:36.704Z,43.51
2023-01-08T03:15:36.670Z,41.73
2023-01-08T03:16:36.789Z,42.86
2023-01-08T03:17:36.653Z,44.15
2023-01-08T03:18:36.647Z,47.05
2023-01-08T03:19:36.633Z,47.53
2023-01-08T03:20:36.618Z,44.79
2023-01-08T03:21:36.621Z,44.31
2023-01-08T03:22:36.594Z,44.63
2023-01-08T03:23:36.593Z,45.76
2023-01-08T03:24:36.595Z,45.28
2023-01-08T03:25:36.563Z,43.34
2023-01-08T03:26:36.563Z,42.54
2023-01-08T03:27:36.567Z,42.86
2023-01-08T03:28:36.539Z,42.86
2023-01-08T03:29:36.521Z,43.34
2023-01-08T03:30:36.561Z,42.86
2023-01-08T03:31:36.507Z,41.89
2023-01-08T03:32:36.469Z,43.18
2023-01-08T03:33:36.469Z,45.92
2023-01-08T03:34:36.478Z,45.60
2023-01-08T03:35:36.439Z,47.05
2023-01-08T03:36:36.433Z,44.47
2023-01-08T03:37:36.455Z,44.15
2023-01-08T03:38:36.435Z,43.51
2023-01-08T03:39:36.453Z,44.15
2023-01-08T03:40:36.409Z,43.34
2023-01-08T03:41:36.471Z,44.31
2023-01-08T03:42:36.372Z,42.22
2023-01-08T03:43:36.405Z,43.51
2023-01-08T03:44:36.347Z,43.34
2023-01-08T03:45:36.337Z,42.54
2023-01-08T03:46:36.370Z,42.86
2023-01-08T03:47:36.328Z,42.70
2023-01-08T03:48:36.301Z,42.22
2023-01-08T03:49:36.288Z,42.86
2023-01-08T03:50:36.283Z,43.67
2023-01-08T03:51:36.272Z,43.02
2023-01-08T03:52:36.280Z,43.67
2023-01-08T03:53:36.264Z,43.83
2023-01-08T03:54:36.250Z,44.79
2023-01-08T03:55:36.214Z,42.86
2023-01-08T03:56:37.209Z,41.25
2023-01-08T03:57:36.299Z,42.22
2023-01-08T03:58:36.214Z,42.38
2023-01-08T03:59:36.195Z,43.02
2023-01-08T04:00:36.181Z,43.51
2023-01-08T04:01:36.278Z,44.15
2023-01-08T04:02:37.236Z,43.34
2023-01-08T04:03:36.127Z,43.99
2023-01-08T04:04:36.151Z,45.28
2023-01-08T04:05:36.110Z,43.18
2023-01-08T04:06:36.091Z,43.51
2023-01-08T04:07:36.102Z,45.28
2023-01-08T04:08:36.081Z,44.79
2023-01-08T04:09:36.080Z,46.57
2023-01-08T04:10:36.056Z,45.92
2023-01-08T04:11:36.041Z,43.34
2023-01-08T04:12:36.023Z,44.15
2023-01-08T04:13:36.111Z,44.31
2023-01-08T04:14:36.040Z,45.28
2023-01-08T04:15:36.100Z,44.15
2023-01-08T04:16:35.992Z,44.63
2023-01-08T04:17:35.969Z,45.28
2023-01-08T04:18:35.985Z,45.44
2023-01-08T04:19:35.960Z,42.86
2023-01-08T04:20:35.947Z,47.37
2023-01-08T04:21:35.940Z,46.25
2023-01-08T04:22:35.919Z,48.82
2023-01-08T04:23:35.927Z,43.67
2023-01-08T04:24:35.911Z,45.76
2023-01-08T04:25:35.925Z,48.02
2023-01-08T04:26:35.920Z,47.53
2023-01-08T04:27:35.891Z,45.44
2023-01-08T04:28:35.851Z,46.73
2023-01-08T04:29:35.946Z,43.83
2023-01-08T04:30:35.862Z,44.47
2023-01-08T04:31:35.816Z,46.08
2023-01-08T04:32:35.823Z,45.60
2023-01-08T04:33:35.799Z,48.82
2023-01-08T04:34:35.810Z,44.15
2023-01-08T04:35:35.817Z,45.44
2023-01-08T04:36:35.771Z,45.76
2023-01-08T04:37:35.757Z,43.67
2023-01-08T04:38:35.750Z,46.73
2023-01-08T04:39:35.743Z,47.05
2023-01-08T04:40:35.736Z,46.25
2023-01-08T04:41:35.735Z,48.34
2023-01-08T04:42:35.715Z,47.53
2023-01-08T04:43:35.696Z,47.21
2023-01-08T04:44:35.714Z,46.08
2023-01-08T04:45:35.755Z,46.89
2023-01-08T04:46:35.743Z,49.31
2023-01-08T04:47:35.657Z,47.86
2023-01-08T04:48:35.634Z,47.53
2023-01-08T04:49:35.628Z,47.53
2023-01-08T04:50:35.627Z,48.34
2023-01-08T04:51:35.624Z,47.86
2023-01-08T04:52:35.604Z,48.82
2023-01-08T04:53:35.585Z,48.02
2023-01-08T04:54:35.581Z,47.86
2023-01-08T04:55:35.577Z,47.86
2023-01-08T04:56:35.583Z,47.37
2023-01-08T04:57:35.541Z,48.50
2023-01-08T04:58:35.527Z,46.41
2023-01-08T04:59:35.524Z,45.76
2023-01-08T05:00:35.515Z,47.70
2023-01-08T05:01:35.709Z,45.44
2023-01-08T05:02:35.754Z,43.83
2023-01-08T05:03:35.583Z,43.34
2023-01-08T05:04:35.463Z,47.37
2023-01-08T05:05:35.449Z,46.08
2023-01-08T05:06:35.456Z,45.76
2023-01-08T05:07:35.425Z,45.76
2023-01-08T05:08:35.421Z,45.76
2023-01-08T05:09:35.412Z,44.63
2023-01-08T05:10:35.400Z,46.41
2023-01-08T05:11:35.400Z,47.86
2023-01-08T05:12:35.382Z,46.89
2023-01-08T05:13:35.403Z,47.05
2023-01-08T05:14:35.363Z,49.47
2023-01-08T05:15:35.451Z,49.47
2023-01-08T05:16:35.336Z,48.34
2023-01-08T05:17:35.406Z,48.82
2023-01-08T05:18:35.344Z,50.60
2023-01-08T05:19:36.964Z,50.76
2023-01-08T05:20:35.331Z,50.11
2023-01-08T05:21:35.305Z,49.63
2023-01-08T05:22:35.270Z,48.34
2023-01-08T05:23:35.261Z,47.21
2023-01-08T05:24:35.261Z,49.63
2023-01-08T05:25:35.234Z,51.40
2023-01-08T05:26:35.258Z,52.05
2023-01-08T05:27:35.224Z,50.92
2023-01-08T05:28:35.212Z,52.05
2023-01-08T05:29:35.217Z,53.33
2023-01-08T05:30:35.229Z,50.92
2023-01-08T05:31:35.183Z,52.21
2023-01-08T05:32:35.161Z,50.43
2023-01-08T05:33:35.256Z,50.11
2023-01-08T05:34:35.160Z,50.11
2023-01-08T05:35:35.156Z,50.60
2023-01-08T05:36:35.131Z,50.27
2023-01-08T05:37:35.122Z,50.60
2023-01-08T05:38:35.088Z,48.50
2023-01-08T05:39:35.090Z,48.34
2023-01-08T05:40:35.100Z,48.02
2023-01-08T05:41:35.055Z,47.21
2023-01-08T05:42:35.060Z,47.05
2023-01-08T05:43:35.064Z,49.79
2023-01-08T05:44:36.028Z,51.40
2023-01-08T05:45:35.024Z,51.40
2023-01-08T05:46:35.056Z,51.56
2023-01-08T05:47:35.004Z,51.88
2023-01-08T05:48:35.028Z,55.43
2023-01-08T05:49:35.074Z,53.50
2023-01-08T05:50:34.974Z,50.27
2023-01-08T05:51:34.952Z,51.72
2023-01-08T05:52:34.943Z,52.21
2023-01-08T05:53:34.966Z,53.66
2023-01-08T05:54:34.924Z,52.37
2023-01-08T05:55:34.914Z,53.01
2023-01-08T05:56:35.910Z,55.11
2023-01-08T05:57:34.898Z,54.14
2023-01-08T05:58:34.908Z,54.14
2023-01-08T05:59:34.887Z,54.14
2023-01-08T06:00:34.897Z,52.05
2023-01-08T06:01:34.852Z,51.88
2023-01-08T06:02:34.882Z,54.62
2023-01-08T06:03:34.830Z,54.30
2023-01-08T06:04:34.861Z,52.05
2023-01-08T06:05:34.893Z,50.43
2023-01-08T06:06:34.814Z,50.76
2023-01-08T06:07:34.811Z,49.79
2023-01-08T06:08:34.804Z,51.08
2023-01-08T06:09:34.771Z,50.92
2023-01-08T06:10:34.760Z,49.15
2023-01-08T06:11:34.733Z,50.11
2023-01-08T06:12:34.745Z,49.95
2023-01-08T06:13:34.741Z,51.08
2023-01-08T06:14:34.747Z,50.43
2023-01-08T06:15:34.736Z,50.60
2023-01-08T06:16:34.698Z,50.76
2023-01-08T06:17:34.686Z,50.27
2023-01-08T06:18:34.659Z,50.76
2023-01-08T06:19:34.680Z,49.47
2023-01-08T06:20:34.653Z,51.08
2023-01-08T06:21:34.714Z,49.79
2023-01-08T06:22:34.634Z,50.43
2023-01-08T06:23:34.636Z,48.82
2023-01-08T06:24:34.623Z,50.27
2023-01-08T06:25:34.627Z,51.56
2023-01-08T06:26:34.581Z,51.08
2023-01-08T06:27:34.575Z,49.63
2023-01-08T06:28:34.590Z,49.95
2023-01-08T06:29:34.541Z,49.15
2023-01-08T06:30:34.536Z,49.63
2023-01-08T06:31:34.575Z,49.47
2023-01-08T06:32:34.528Z,50.43
2023-01-08T06:33:34.542Z,52.69
2023-01-08T06:34:34.490Z,50.60
2023-01-08T06:35:34.492Z,49.31
2023-01-08T06:36:34.468Z,49.95
2023-01-08T06:37:34.554Z,48.66
2023-01-08T06:38:34.481Z,50.76
2023-01-08T06:39:34.444Z,49.79
2023-01-08T06:40:34.428Z,48.98
2023-01-08T06:41:34.410Z,49.47
2023-01-08T06:42:34.425Z,48.98
2023-01-08T06:43:36.345Z,50.27
2023-01-08T06:44:34.401Z,48.82
2023-01-08T06:45:34.475Z,51.08
2023-01-08T06:46:34.363Z,48.82
2023-01-08T06:47:34.368Z,48.98
2023-01-08T06:48:34.344Z,50.11
2023-01-08T06:49:34.354Z,49.79
2023-01-08T06:50:34.316Z,50.27
2023-01-08T06:51:34.316Z,50.92
2023-01-08T06:52:34.303Z,50.43
2023-01-08T06:53:34.287Z,50.92
2023-01-08T06:54:34.289Z,49.47
2023-01-08T06:55:34.274Z,50.43
2023-01-08T06:56:45.390Z,53.17
2023-01-08T06:57:36.256Z,51.08
2023-01-08T06:58:34.239Z,49.95
2023-01-08T06:59:34.207Z,51.88
2023-01-08T07:00:34.257Z,51.40
2023-01-08T07:01:34.283Z,51.72
2023-01-08T07:02:34.426Z,51.72
2023-01-08T07:03:34.237Z,49.95
2023-01-08T07:04:34.178Z,50.11
2023-01-08T07:05:34.151Z,49.15
2023-01-08T07:06:34.159Z,48.82
2023-01-08T07:07:34.143Z,51.24
2023-01-08T07:08:34.143Z,48.18
2023-01-08T07:09:34.205Z,49.31
2023-01-08T07:10:34.193Z,49.79
2023-01-08T07:11:34.125Z,50.60
2023-01-08T07:12:34.089Z,49.63
2023-01-08T07:13:34.092Z,47.70
2023-01-08T07:14:34.083Z,45.76
2023-01-08T07:15:34.056Z,45.92
2023-01-08T07:16:34.073Z,50.43
2023-01-08T07:17:34.052Z,46.41
2023-01-08T07:18:34.043Z,48.34
2023-01-08T07:19:34.039Z,47.37
2023-01-08T07:20:34.029Z,48.18
2023-01-08T07:21:33.992Z,47.70
2023-01-08T07:22:33.974Z,51.56
2023-01-08T07:23:33.983Z,50.60
2023-01-08T07:24:33.965Z,46.08
2023-01-08T07:25:34.039Z,44.15
2023-01-08T07:26:33.925Z,46.41
2023-01-08T07:27:33.918Z,49.47
2023-01-08T07:28:33.939Z,48.82
2023-01-08T07:29:33.915Z,49.47
2023-01-08T07:30:34.008Z,50.60
2023-01-08T07:31:33.937Z,48.82
2023-01-08T07:32:33.905Z,50.27
2023-01-08T07:33:33.891Z,48.50
2023-01-08T07:34:33.852Z,48.98
2023-01-08T07:35:33.840Z,47.86
2023-01-08T07:36:33.847Z,44.96
2023-01-08T07:37:33.833Z,47.86
2023-01-08T07:38:33.835Z,49.79
2023-01-08T07:39:33.794Z,50.76
2023-01-08T07:40:33.785Z,50.11
2023-01-08T07:41:33.898Z,48.98
2023-01-08T07:42:33.775Z,49.95
2023-01-08T07:43:33.788Z,51.40
2023-01-08T07:44:33.750Z,48.98
2023-01-08T07:45:33.761Z,48.02
2023-01-08T07:46:33.790Z,48.98
2023-01-08T07:47:33.717Z,50.11
2023-01-08T07:48:33.715Z,47.86
2023-01-08T07:49:33.676Z,44.96
2023-01-08T07:50:33.672Z,45.44
2023-01-08T07:51:33.667Z,46.08
2023-01-08T07:52:33.668Z,51.56
2023-01-08T07:53:33.656Z,50.76
2023-01-08T07:54:33.632Z,51.08
2023-01-08T07:55:33.633Z,49.63
2023-01-08T07:56:33.637Z,50.92
2023-01-08T07:57:33.708Z,49.79
2023-01-08T07:58:33.628Z,49.15
2023-01-08T07:59:33.576Z,48.82
2023-01-08T08:00:33.566Z,50.76
2023-01-08T08:01:33.647Z,49.63
2023-01-08T08:02:33.775Z,49.47
2023-01-08T08:03:33.608Z,48.82
2023-01-08T08:04:33.540Z,47.21
2023-01-08T08:05:33.532Z,51.40
2023-01-08T08:06:33.513Z,48.82
2023-01-08T08:07:33.502Z,48.50
2023-01-08T08:08:33.483Z,50.76
2023-01-08T08:09:33.466Z,50.60
2023-01-08T08:10:33.470Z,53.01
2023-01-08T08:11:33.456Z,49.95
2023-01-08T08:12:33.458Z,50.92
2023-01-08T08:13:33.426Z,50.11
2023-01-08T08:14:33.434Z,50.60
2023-01-08T08:15:33.416Z,52.69
2023-01-08T08:16:33.563Z,50.92
2023-01-08T08:17:33.387Z,51.88
2023-01-08T08:18:33.381Z,54.95
2023-01-08T08:19:33.366Z,54.30
2023-01-08T08:20:33.366Z,53.98
2023-01-08T08:21:33.346Z,53.01
2023-01-08T08:22:33.333Z,51.88
2023-01-08T08:23:35.817Z,49.95
2023-01-08T08:24:33.332Z,49.79
2023-01-08T08:25:33.295Z,48.50
2023-01-08T08:26:33.303Z,48.34
2023-01-08T08:27:33.282Z,50.92
2023-01-08T08:28:33.280Z,49.95
2023-01-08T08:29:33.363Z,52.21
2023-01-08T08:30:33.241Z,51.08
2023-01-08T08:31:33.282Z,52.53
2023-01-08T08:32:33.254Z,55.43
2023-01-08T08:33:33.240Z,48.98
2023-01-08T08:34:33.226Z,48.82
2023-01-08T08:35:33.183Z,49.15
2023-01-08T08:36:33.202Z,48.98
2023-01-08T08:37:33.204Z,51.88
2023-01-08T08:38:33.152Z,48.82
2023-01-08T08:39:33.184Z,50.60
2023-01-08T08:40:33.125Z,51.56
2023-01-08T08:41:33.122Z,48.98
2023-01-08T08:42:33.136Z,50.92
2023-01-08T08:43:33.124Z,51.40
2023-01-08T08:44:34.122Z,49.79
2023-01-08T08:45:33.171Z,49.31
2023-01-08T08:46:33.136Z,51.56
2023-01-08T08:47:33.080Z,53.17
2023-01-08T08:48:33.049Z,48.98
2023-01-08T08:49:33.051Z,50.27
2023-01-08T08:50:33.063Z,51.72
2023-01-08T08:51:33.005Z,49.63
2023-01-08T08:52:33.002Z,50.11
2023-01-08T08:53:33.035Z,52.53
2023-01-08T08:54:33.003Z,55.59
2023-01-08T08:55:32.973Z,51.56
2023-01-08T08:56:32.989Z,53.66
2023-01-08T08:57:32.946Z,54.46
2023-01-08T08:58:32.948Z,55.11
2023-01-08T08:59:32.947Z,51.08
2023-01-08T09:00:32.963Z,52.21
2023-01-08T09:01:33.112Z,51.24
2023-01-08T09:02:33.110Z,52.21
2023-01-08T09:03:32.985Z,51.56
2023-01-08T09:04:32.898Z,56.24
2023-01-08T09:05:33.001Z,49.95
2023-01-08T09:06:32.851Z,51.24
2023-01-08T09:07:33.865Z,48.34
2023-01-08T09:08:32.855Z,53.50
2023-01-08T09:09:32.823Z,52.37
2023-01-08T09:10:32.815Z,53.50
2023-01-08T09:11:32.810Z,53.17
2023-01-08T09:12:32.811Z,52.53
2023-01-08T09:13:32.843Z,53.66
2023-01-08T09:14:32.784Z,49.47
2023-01-08T09:15:32.757Z,53.17
2023-01-08T09:16:32.770Z,53.17
2023-01-08T09:17:32.828Z,50.60
2023-01-08T09:18:32.732Z,48.82
2023-01-08T09:19:32.746Z,51.24
2023-01-08T09:20:32.728Z,51.24
2023-01-08T09:21:32.691Z,52.21
2023-01-08T09:22:32.695Z,53.82
2023-01-08T09:23:32.684Z,51.88
2023-01-08T09:24:32.675Z,51.40
2023-01-08T09:25:32.661Z,50.27
2023-01-08T09:26:32.642Z,53.17
2023-01-08T09:27:32.644Z,48.50
2023-01-08T09:28:32.609Z,50.60
2023-01-08T09:29:32.616Z,53.98
2023-01-08T09:30:32.588Z,52.53
2023-01-08T09:31:32.639Z,53.98
2023-01-08T09:32:32.579Z,49.47
2023-01-08T09:33:32.663Z,52.05
2023-01-08T09:34:32.644Z,49.47
2023-01-08T09:35:32.533Z,54.62
2023-01-08T09:36:32.532Z,50.43
2023-01-08T09:37:32.537Z,52.53
2023-01-08T09:38:32.499Z,52.69
2023-01-08T09:39:32.502Z,48.34
2023-01-08T09:40:32.473Z,49.31
2023-01-08T09:41:32.481Z,54.62
2023-01-08T09:42:32.459Z,56.24
2023-01-08T09:43:32.432Z,50.27
2023-01-08T09:44:32.466Z,55.11
2023-01-08T09:45:32.416Z,52.37
2023-01-08T09:46:32.503Z,53.01
2023-01-08T09:47:32.421Z,52.85
2023-01-08T09:48:32.425Z,53.82
2023-01-08T09:49:32.461Z,52.05
2023-01-08T09:50:32.377Z,52.69
2023-01-08T09:51:32.368Z,52.53
2023-01-08T09:52:32.351Z,54.79
2023-01-08T09:53:32.331Z,53.82
2023-01-08T09:54:32.329Z,53.17
2023-01-08T09:55:32.325Z,52.69
2023-01-08T09:56:32.328Z,55.11
2023-01-08T09:57:32.289Z,52.53
2023-01-08T09:58:32.310Z,50.76
2023-01-08T09:59:32.259Z,53.66
2023-01-08T10:00:32.304Z,55.43
2023-01-08T10:01:32.488Z,54.79
2023-01-08T10:02:32.288Z,55.59
2023-01-08T10:03:32.223Z,56.40
2023-01-08T10:04:32.225Z,55.11
2023-01-08T10:05:32.282Z,57.20
2023-01-08T10:06:32.198Z,51.56
2023-01-08T10:07:32.200Z,51.56
2023-01-08T10:08:32.168Z,51.08
2023-01-08T10:09:32.172Z,50.92
2023-01-08T10:10:32.143Z,52.53
2023-01-08T10:11:32.137Z,48.66
2023-01-08T10:12:32.162Z,54.14
2023-01-08T10:13:32.112Z,52.05
2023-01-08T10:14:32.106Z,52.37
2023-01-08T10:15:32.093Z,50.43
2023-01-08T10:16:32.127Z,53.01
2023-01-08T10:17:32.087Z,54.14
2023-01-08T10:18:32.057Z,51.88
2023-01-08T10:19:32.053Z,54.30
2023-01-08T10:20:32.032Z,54.14
2023-01-08T10:21:32.113Z,53.01
2023-01-08T10:22:32.023Z,57.04
2023-01-08T10:23:31.994Z,53.17
2023-01-08T10:24:31.988Z,53.50
2023-01-08T10:25:31.988Z,55.11
2023-01-08T10:26:31.968Z,53.01
2023-01-08T10:27:31.963Z,53.98
2023-01-08T10:28:31.951Z,54.14
2023-01-08T10:29:31.923Z,53.66
2023-01-08T10:30:31.908Z,55.91
2023-01-08T10:31:31.980Z,54.14
2023-01-08T10:32:31.893Z,54.95
2023-01-08T10:33:31.888Z,53.33
2023-01-08T10:34:31.889Z,53.01
2023-01-08T10:35:31.852Z,53.98
2023-01-08T10:36:31.853Z,51.40
2023-01-08T10:37:31.923Z,55.43
2023-01-08T10:38:33.420Z,53.50
2023-01-08T10:39:32.810Z,55.27
2023-01-08T10:40:31.815Z,53.17
2023-01-08T10:41:31.805Z,54.14
2023-01-08T10:42:31.786Z,56.40
2023-01-08T10:43:31.780Z,55.11
2023-01-08T10:44:31.765Z,55.91
2023-01-08T10:45:31.784Z,53.66
2023-01-08T10:46:31.759Z,55.91
2023-01-08T10:47:31.740Z,54.95
2023-01-08T10:48:31.722Z,54.95
2023-01-08T10:49:31.714Z,54.79
2023-01-08T10:50:31.721Z,53.33
2023-01-08T10:51:31.702Z,53.17
2023-01-08T10:52:31.694Z,56.88
2023-01-08T10:53:31.785Z,55.59
2023-01-08T10:54:31.655Z,54.30
2023-01-08T10:55:31.677Z,55.59
2023-01-08T10:56:31.648Z,53.66
2023-01-08T10:57:31.630Z,56.72
2023-01-08T10:58:31.601Z,53.01
2023-01-08T10:59:32.583Z,55.59
2023-01-08T11:00:31.651Z,54.79
2023-01-08T11:01:31.644Z,54.95
2023-01-08T11:02:31.599Z,54.30
2023-01-08T11:03:31.552Z,56.24
2023-01-08T11:04:31.558Z,55.27
2023-01-08T11:05:31.520Z,52.05
2023-01-08T11:06:31.535Z,51.88
2023-01-08T11:07:31.508Z,55.59
2023-01-08T11:08:31.505Z,53.50
2023-01-08T11:09:31.492Z,54.62
2023-01-08T11:10:31.476Z,52.21
2023-01-08T11:11:31.459Z,55.11
2023-01-08T11:12:31.451Z,54.62
2023-01-08T11:13:31.468Z,57.04
2023-01-08T11:14:31.422Z,54.62
2023-01-08T11:15:31.408Z,51.24
2023-01-08T11:16:31.428Z,53.33
2023-01-08T11:17:31.388Z,52.21
2023-01-08T11:18:31.403Z,54.62
2023-01-08T11:19:31.365Z,53.82
2023-01-08T11:20:31.377Z,53.01
2023-01-08T11:21:31.351Z,55.27
2023-01-08T11:22:31.347Z,54.79
2023-01-08T11:23:31.348Z,53.50
2023-01-08T11:24:31.323Z,52.37
2023-01-08T11:25:31.392Z,53.82
2023-01-08T11:26:31.286Z,54.95
2023-01-08T11:27:31.261Z,54.14
2023-01-08T11:28:31.258Z,53.01
2023-01-08T11:29:31.257Z,56.56
2023-01-08T11:30:31.242Z,53.66
2023-01-08T11:31:31.248Z,55.11
2023-01-08T11:32:31.221Z,55.27
2023-01-08T11:33:31.232Z,56.40
2023-01-08T11:34:31.205Z,54.62
2023-01-08T11:35:31.191Z,52.37
2023-01-08T11:36:31.169Z,53.66
2023-01-08T11:37:31.159Z,53.66
2023-01-08T11:38:31.149Z,54.14
2023-01-08T11:39:31.171Z,53.50
2023-01-08T11:40:31.147Z,54.62
2023-01-08T11:41:31.123Z,53.98
2023-01-08T11:42:31.099Z,54.95
2023-01-08T11:43:31.102Z,55.59
2023-01-08T11:44:31.095Z,55.27
2023-01-08T11:45:31.148Z,56.56
2023-01-08T11:46:32.082Z,56.56
2023-01-08T11:47:31.059Z,57.52
2023-01-08T11:48:31.052Z,54.62
2023-01-08T11:49:31.033Z,53.50
2023-01-08T11:50:31.043Z,53.33
2023-01-08T11:51:31.003Z,54.62
2023-01-08T11:52:31.005Z,54.62
2023-01-08T11:53:30.992Z,55.75
2023-01-08T11:54:30.986Z,54.62
2023-01-08T11:55:30.965Z,54.79
2023-01-08T11:56:30.948Z,54.30
2023-01-08T11:57:30.946Z,53.82
2023-01-08T11:58:30.945Z,53.66
2023-01-08T11:59:30.947Z,54.62
2023-01-08T12:00:30.924Z,55.59
2023-01-08T12:01:30.942Z,51.08
2023-01-08T12:02:30.904Z,51.56
2023-01-08T12:03:30.978Z,51.24
2023-01-08T12:04:30.856Z,55.59
2023-01-08T12:05:30.873Z,56.07
2023-01-08T12:06:30.840Z,53.66
2023-01-08T12:07:30.875Z,54.62
2023-01-08T12:08:30.831Z,55.27
2023-01-08T12:09:30.802Z,54.62
2023-01-08T12:10:30.907Z,54.30
2023-01-08T12:11:30.799Z,55.11
2023-01-08T12:12:30.776Z,53.33
2023-01-08T12:13:30.786Z,56.07
2023-01-08T12:14:30.739Z,53.33
2023-01-08T12:15:30.727Z,54.95
2023-01-08T12:16:30.807Z,55.11
2023-01-08T12:17:30.715Z,53.33
2023-01-08T12:18:30.710Z,55.59
2023-01-08T12:19:30.696Z,52.69
2023-01-08T12:20:30.676Z,53.82
2023-01-08T12:21:30.667Z,53.50
2023-01-08T12:22:30.674Z,55.75
2023-01-08T12:23:30.642Z,54.14
2023-01-08T12:24:30.655Z,56.07
2023-01-08T12:25:30.619Z,50.76
2023-01-08T12:26:30.610Z,50.92
2023-01-08T12:27:55.173Z,55.43
2023-01-08T12:28:32.581Z,54.14
2023-01-08T12:29:30.602Z,55.59
2023-01-08T12:30:30.554Z,54.14
2023-01-08T12:31:31.587Z,55.75
2023-01-08T12:32:30.561Z,54.62
2023-01-08T12:33:30.560Z,54.62
2023-01-08T12:34:30.533Z,55.75
2023-01-08T12:35:30.502Z,54.62
2023-01-08T12:36:30.497Z,54.62
2023-01-08T12:37:30.492Z,57.85
2023-01-08T12:38:30.457Z,54.14
2023-01-08T12:39:30.460Z,54.14
2023-01-08T12:40:30.463Z,56.88
2023-01-08T12:41:30.467Z,52.69
2023-01-08T12:42:30.423Z,54.62
2023-01-08T12:43:30.442Z,54.62
2023-01-08T12:44:30.423Z,54.14
2023-01-08T12:45:30.428Z,54.95
2023-01-08T12:46:30.391Z,55.11
2023-01-08T12:47:30.366Z,54.79
2023-01-08T12:48:30.384Z,54.79
2023-01-08T12:49:30.340Z,57.69
2023-01-08T12:50:30.341Z,55.11
2023-01-08T12:51:30.343Z,55.43
2023-01-08T12:52:30.341Z,56.88